sensor_id;sensor_type;location;lat;lon;timestamp;temperature;humidity
56538;DHT22;42435;53.292;6.000;2023-04-25T00:01:27;7.30;75.20
56538;DHT22;42435;53.292;6.000;2023-04-25T00:03:52;7.20;74.90
56538;DHT22;42435;53.292;6.000;2023-04-25T00:06:18;7.10;74.70
56538;DHT22;42435;53.292;6.000;2023-04-25T00:08:46;7.10;74.60
56538;DHT22;42435;53.292;6.000;2023-04-25T00:11:12;7.00;74.60
56538;DHT22;42435;53.292;6.000;2023-04-25T00:13:40;6.90;74.40
56538;DHT22;42435;53.292;6.000;2023-04-25T00:16:07;6.90;74.30
56538;DHT22;42435;53.292;6.000;2023-04-25T00:18:33;6.90;74.20
56538;DHT22;42435;53.292;6.000;2023-04-25T00:20:59;6.80;74.20
56538;DHT22;42435;53.292;6.000;2023-04-25T00:23:24;6.80;74.30
56538;DHT22;42435;53.292;6.000;2023-04-25T00:25:50;6.80;74.40
56538;DHT22;42435;53.292;6.000;2023-04-25T00:28:16;6.80;74.50
56538;DHT22;42435;53.292;6.000;2023-04-25T00:30:42;6.80;74.70
56538;DHT22;42435;53.292;6.000;2023-04-25T00:33:09;6.80;74.90
56538;DHT22;42435;53.292;6.000;2023-04-25T00:35:35;6.80;75.20
56538;DHT22;42435;53.292;6.000;2023-04-25T00:38:01;6.90;75.30
56538;DHT22;42435;53.292;6.000;2023-04-25T00:40:27;6.90;75.30
56538;DHT22;42435;53.292;6.000;2023-04-25T00:42:53;6.90;75.10
56538;DHT22;42435;53.292;6.000;2023-04-25T00:45:19;7.00;74.90
56538;DHT22;42435;53.292;6.000;2023-04-25T00:47:45;7.00;74.60
56538;DHT22;42435;53.292;6.000;2023-04-25T00:50:11;7.00;74.50
56538;DHT22;42435;53.292;6.000;2023-04-25T00:52:39;7.10;74.10
56538;DHT22;42435;53.292;6.000;2023-04-25T00:55:06;7.10;73.60
56538;DHT22;42435;53.292;6.000;2023-04-25T00:57:32;7.10;73.10
56538;DHT22;42435;53.292;6.000;2023-04-25T00:59:58;7.20;72.80
56538;DHT22;42435;53.292;6.000;2023-04-25T01:02:24;7.20;72.60
56538;DHT22;42435;53.292;6.000;2023-04-25T01:04:51;7.20;72.40
56538;DHT22;42435;53.292;6.000;2023-04-25T01:07:17;7.20;72.00
56538;DHT22;42435;53.292;6.000;2023-04-25T01:09:42;7.20;71.80
56538;DHT22;42435;53.292;6.000;2023-04-25T01:12:08;7.20;71.60
56538;DHT22;42435;53.292;6.000;2023-04-25T01:14:34;7.20;71.60
56538;DHT22;42435;53.292;6.000;2023-04-25T01:16:59;7.20;71.80
56538;DHT22;42435;53.292;6.000;2023-04-25T01:19:25;7.20;72.00
56538;DHT22;42435;53.292;6.000;2023-04-25T01:21:51;7.20;72.10
56538;DHT22;42435;53.292;6.000;2023-04-25T01:24:17;7.30;72.00
56538;DHT22;42435;53.292;6.000;2023-04-25T01:26:43;7.30;71.90
56538;DHT22;42435;53.292;6.000;2023-04-25T01:29:18;7.30;71.70
56538;DHT22;42435;53.292;6.000;2023-04-25T01:31:44;7.30;71.20
56538;DHT22;42435;53.292;6.000;2023-04-25T01:34:10;7.20;71.30
56538;DHT22;42435;53.292;6.000;2023-04-25T01:36:36;7.20;71.30
56538;DHT22;42435;53.292;6.000;2023-04-25T01:39:02;7.20;71.00
56538;DHT22;42435;53.292;6.000;2023-04-25T01:41:28;7.20;70.70
56538;DHT22;42435;53.292;6.000;2023-04-25T01:43:53;7.20;71.00
56538;DHT22;42435;53.292;6.000;2023-04-25T01:46:19;7.20;71.00
56538;DHT22;42435;53.292;6.000;2023-04-25T01:48:45;7.20;70.90
56538;DHT22;42435;53.292;6.000;2023-04-25T01:51:14;7.20;71.00
56538;DHT22;42435;53.292;6.000;2023-04-25T01:53:40;7.20;71.00
56538;DHT22;42435;53.292;6.000;2023-04-25T01:56:06;7.20;70.70
56538;DHT22;42435;53.292;6.000;2023-04-25T01:58:32;7.10;70.30
56538;DHT22;42435;53.292;6.000;2023-04-25T02:00:57;7.10;70.30
56538;DHT22;42435;53.292;6.000;2023-04-25T02:03:23;7.20;70.50
56538;DHT22;42435;53.292;6.000;2023-04-25T02:05:48;7.10;70.70
56538;DHT22;42435;53.292;6.000;2023-04-25T02:08:17;7.20;70.80
56538;DHT22;42435;53.292;6.000;2023-04-25T02:10:43;7.10;71.00
56538;DHT22;42435;53.292;6.000;2023-04-25T02:13:09;7.10;70.80
56538;DHT22;42435;53.292;6.000;2023-04-25T02:15:35;7.10;71.10
56538;DHT22;42435;53.292;6.000;2023-04-25T02:18:00;7.00;69.60
56538;DHT22;42435;53.292;6.000;2023-04-25T02:20:27;6.90;69.60
56538;DHT22;42435;53.292;6.000;2023-04-25T02:22:52;6.80;70.00
56538;DHT22;42435;53.292;6.000;2023-04-25T02:25:19;6.80;70.50
56538;DHT22;42435;53.292;6.000;2023-04-25T02:27:46;6.80;71.10
56538;DHT22;42435;53.292;6.000;2023-04-25T02:30:11;6.70;71.50
56538;DHT22;42435;53.292;6.000;2023-04-25T02:32:38;6.70;71.70
56538;DHT22;42435;53.292;6.000;2023-04-25T02:35:05;6.70;71.60
56538;DHT22;42435;53.292;6.000;2023-04-25T02:37:32;6.70;71.30
56538;DHT22;42435;53.292;6.000;2023-04-25T02:39:57;6.70;71.50
56538;DHT22;42435;53.292;6.000;2023-04-25T02:42:23;6.70;71.40
56538;DHT22;42435;53.292;6.000;2023-04-25T02:44:48;6.60;71.40
56538;DHT22;42435;53.292;6.000;2023-04-25T02:47:14;6.60;71.20
56538;DHT22;42435;53.292;6.000;2023-04-25T02:49:40;6.60;71.10
56538;DHT22;42435;53.292;6.000;2023-04-25T02:52:06;6.60;71.10
56538;DHT22;42435;53.292;6.000;2023-04-25T02:54:31;6.60;70.80
56538;DHT22;42435;53.292;6.000;2023-04-25T02:56:57;6.60;70.60
56538;DHT22;42435;53.292;6.000;2023-04-25T02:59:22;6.50;70.90
56538;DHT22;42435;53.292;6.000;2023-04-25T03:01:48;6.50;70.80
56538;DHT22;42435;53.292;6.000;2023-04-25T03:04:14;6.50;70.90
56538;DHT22;42435;53.292;6.000;2023-04-25T03:06:40;6.40;71.20
56538;DHT22;42435;53.292;6.000;2023-04-25T03:09:06;6.40;70.90
56538;DHT22;42435;53.292;6.000;2023-04-25T03:11:31;6.40;70.80
56538;DHT22;42435;53.292;6.000;2023-04-25T03:13:57;6.40;70.40
56538;DHT22;42435;53.292;6.000;2023-04-25T03:16:23;6.40;70.40
56538;DHT22;42435;53.292;6.000;2023-04-25T03:18:49;6.40;70.40
56538;DHT22;42435;53.292;6.000;2023-04-25T03:21:16;6.40;70.70
56538;DHT22;42435;53.292;6.000;2023-04-25T03:23:41;6.40;70.90
56538;DHT22;42435;53.292;6.000;2023-04-25T03:26:07;6.40;71.10
56538;DHT22;42435;53.292;6.000;2023-04-25T03:28:32;6.50;71.20
56538;DHT22;42435;53.292;6.000;2023-04-25T03:30:58;6.50;71.40
56538;DHT22;42435;53.292;6.000;2023-04-25T03:33:23;6.50;71.60
56538;DHT22;42435;53.292;6.000;2023-04-25T03:35:49;6.60;71.90
56538;DHT22;42435;53.292;6.000;2023-04-25T03:38:15;6.60;72.30
56538;DHT22;42435;53.292;6.000;2023-04-25T03:40:41;6.50;72.50
56538;DHT22;42435;53.292;6.000;2023-04-25T03:43:06;6.50;72.80
56538;DHT22;42435;53.292;6.000;2023-04-25T03:45:32;6.50;73.10
56538;DHT22;42435;53.292;6.000;2023-04-25T03:47:58;6.50;73.30
56538;DHT22;42435;53.292;6.000;2023-04-25T03:50:23;6.40;73.50
56538;DHT22;42435;53.292;6.000;2023-04-25T03:52:49;6.40;73.60
56538;DHT22;42435;53.292;6.000;2023-04-25T03:55:15;6.40;73.60
56538;DHT22;42435;53.292;6.000;2023-04-25T03:57:41;6.30;73.60
56538;DHT22;42435;53.292;6.000;2023-04-25T04:00:07;6.30;73.50
56538;DHT22;42435;53.292;6.000;2023-04-25T04:02:33;6.20;73.60
56538;DHT22;42435;53.292;6.000;2023-04-25T04:05:00;6.20;73.50
56538;DHT22;42435;53.292;6.000;2023-04-25T04:07:26;6.10;73.50
56538;DHT22;42435;53.292;6.000;2023-04-25T04:09:51;6.10;73.60
56538;DHT22;42435;53.292;6.000;2023-04-25T04:12:17;6.10;73.70
56538;DHT22;42435;53.292;6.000;2023-04-25T04:14:45;6.00;73.70
56538;DHT22;42435;53.292;6.000;2023-04-25T04:17:11;6.00;73.80
56538;DHT22;42435;53.292;6.000;2023-04-25T04:19:36;6.00;74.00
56538;DHT22;42435;53.292;6.000;2023-04-25T04:22:02;5.90;74.20
56538;DHT22;42435;53.292;6.000;2023-04-25T04:24:27;6.00;74.40
56538;DHT22;42435;53.292;6.000;2023-04-25T04:26:53;6.00;74.50
56538;DHT22;42435;53.292;6.000;2023-04-25T04:29:18;6.00;74.60
56538;DHT22;42435;53.292;6.000;2023-04-25T04:31:50;6.00;74.70
56538;DHT22;42435;53.292;6.000;2023-04-25T04:34:19;6.00;74.80
56538;DHT22;42435;53.292;6.000;2023-04-25T04:36:45;6.10;74.80
56538;DHT22;42435;53.292;6.000;2023-04-25T04:39:16;6.10;74.90
56538;DHT22;42435;53.292;6.000;2023-04-25T04:41:42;6.20;74.90
56538;DHT22;42435;53.292;6.000;2023-04-25T04:44:08;6.20;74.90
56538;DHT22;42435;53.292;6.000;2023-04-25T04:46:34;6.30;74.80
56538;DHT22;42435;53.292;6.000;2023-04-25T04:49:09;6.30;74.40
56538;DHT22;42435;53.292;6.000;2023-04-25T04:51:35;6.30;74.10
56538;DHT22;42435;53.292;6.000;2023-04-25T04:54:00;6.40;73.90
56538;DHT22;42435;53.292;6.000;2023-04-25T04:56:31;6.40;73.90
56538;DHT22;42435;53.292;6.000;2023-04-25T04:58:57;6.40;73.80
56538;DHT22;42435;53.292;6.000;2023-04-25T05:01:24;6.40;73.70
56538;DHT22;42435;53.292;6.000;2023-04-25T05:03:49;6.40;73.70
56538;DHT22;42435;53.292;6.000;2023-04-25T05:06:16;6.40;73.80
56538;DHT22;42435;53.292;6.000;2023-04-25T05:08:45;6.40;73.70
56538;DHT22;42435;53.292;6.000;2023-04-25T05:11:10;6.40;73.60
56538;DHT22;42435;53.292;6.000;2023-04-25T05:13:36;6.40;73.40
56538;DHT22;42435;53.292;6.000;2023-04-25T05:16:02;6.40;73.30
56538;DHT22;42435;53.292;6.000;2023-04-25T05:18:28;6.40;73.30
56538;DHT22;42435;53.292;6.000;2023-04-25T05:20:53;6.40;73.40
56538;DHT22;42435;53.292;6.000;2023-04-25T05:23:19;6.40;73.40
56538;DHT22;42435;53.292;6.000;2023-04-25T05:25:45;6.40;73.50
56538;DHT22;42435;53.292;6.000;2023-04-25T05:28:12;6.50;73.60
56538;DHT22;42435;53.292;6.000;2023-04-25T05:30:38;6.60;73.60
56538;DHT22;42435;53.292;6.000;2023-04-25T05:33:04;6.70;73.50
56538;DHT22;42435;53.292;6.000;2023-04-25T05:35:29;6.80;73.40
56538;DHT22;42435;53.292;6.000;2023-04-25T05:37:55;6.80;72.80
56538;DHT22;42435;53.292;6.000;2023-04-25T05:40:21;6.70;71.40
56538;DHT22;42435;53.292;6.000;2023-04-25T05:42:46;6.70;71.30
56538;DHT22;42435;53.292;6.000;2023-04-25T05:45:12;6.50;71.30
56538;DHT22;42435;53.292;6.000;2023-04-25T05:47:38;6.50;71.80
56538;DHT22;42435;53.292;6.000;2023-04-25T05:50:04;6.60;72.20
56538;DHT22;42435;53.292;6.000;2023-04-25T05:52:30;6.60;72.10
56538;DHT22;42435;53.292;6.000;2023-04-25T05:54:58;6.60;71.90
56538;DHT22;42435;53.292;6.000;2023-04-25T05:57:25;6.70;71.70
56538;DHT22;42435;53.292;6.000;2023-04-25T05:59:51;6.70;71.40
56538;DHT22;42435;53.292;6.000;2023-04-25T06:02:18;6.70;71.10
56538;DHT22;42435;53.292;6.000;2023-04-25T06:04:44;6.80;71.00
56538;DHT22;42435;53.292;6.000;2023-04-25T06:07:10;6.90;70.90
56538;DHT22;42435;53.292;6.000;2023-04-25T06:09:35;7.00;70.70
56538;DHT22;42435;53.292;6.000;2023-04-25T06:12:01;7.20;70.50
56538;DHT22;42435;53.292;6.000;2023-04-25T06:14:27;7.30;70.20
56538;DHT22;42435;53.292;6.000;2023-04-25T06:16:52;7.50;70.30
56538;DHT22;42435;53.292;6.000;2023-04-25T06:19:18;7.80;70.20
56538;DHT22;42435;53.292;6.000;2023-04-25T06:21:44;8.00;70.20
56538;DHT22;42435;53.292;6.000;2023-04-25T06:24:12;8.40;70.30
56538;DHT22;42435;53.292;6.000;2023-04-25T06:26:38;8.70;69.20
56538;DHT22;42435;53.292;6.000;2023-04-25T06:29:04;8.90;68.50
56538;DHT22;42435;53.292;6.000;2023-04-25T06:31:29;9.20;66.90
56538;DHT22;42435;53.292;6.000;2023-04-25T06:33:57;9.20;65.80
56538;DHT22;42435;53.292;6.000;2023-04-25T06:36:23;9.20;65.20
56538;DHT22;42435;53.292;6.000;2023-04-25T06:38:51;9.10;65.70
56538;DHT22;42435;53.292;6.000;2023-04-25T06:41:17;9.10;66.10
56538;DHT22;42435;53.292;6.000;2023-04-25T06:43:43;9.00;66.50
56538;DHT22;42435;53.292;6.000;2023-04-25T06:46:09;8.90;66.60
56538;DHT22;42435;53.292;6.000;2023-04-25T06:48:35;8.80;66.90
56538;DHT22;42435;53.292;6.000;2023-04-25T06:51:03;8.70;67.20
56538;DHT22;42435;53.292;6.000;2023-04-25T06:53:29;8.50;67.40
56538;DHT22;42435;53.292;6.000;2023-04-25T06:55:54;8.40;67.70
56538;DHT22;42435;53.292;6.000;2023-04-25T06:58:20;8.30;67.60
56538;DHT22;42435;53.292;6.000;2023-04-25T07:00:46;8.30;67.80
56538;DHT22;42435;53.292;6.000;2023-04-25T07:03:11;8.30;67.70
56538;DHT22;42435;53.292;6.000;2023-04-25T07:05:40;8.40;67.40
56538;DHT22;42435;53.292;6.000;2023-04-25T07:08:05;8.40;67.50
56538;DHT22;42435;53.292;6.000;2023-04-25T07:10:31;8.40;67.60
56538;DHT22;42435;53.292;6.000;2023-04-25T07:12:57;8.50;67.50
56538;DHT22;42435;53.292;6.000;2023-04-25T07:15:22;8.50;67.30
56538;DHT22;42435;53.292;6.000;2023-04-25T07:17:48;8.50;67.40
56538;DHT22;42435;53.292;6.000;2023-04-25T07:20:13;8.60;67.30
56538;DHT22;42435;53.292;6.000;2023-04-25T07:22:39;8.60;67.70
56538;DHT22;42435;53.292;6.000;2023-04-25T07:25:05;8.80;68.00
56538;DHT22;42435;53.292;6.000;2023-04-25T07:27:31;9.00;68.10
56538;DHT22;42435;53.292;6.000;2023-04-25T07:29:57;9.20;67.90
56538;DHT22;42435;53.292;6.000;2023-04-25T07:32:29;9.40;67.40
56538;DHT22;42435;53.292;6.000;2023-04-25T07:34:55;9.50;66.80
56538;DHT22;42435;53.292;6.000;2023-04-25T07:37:20;9.60;66.10
56538;DHT22;42435;53.292;6.000;2023-04-25T07:39:46;9.60;64.00
56538;DHT22;42435;53.292;6.000;2023-04-25T07:42:15;9.60;62.70
56538;DHT22;42435;53.292;6.000;2023-04-25T07:44:40;9.70;62.10
56538;DHT22;42435;53.292;6.000;2023-04-25T07:47:07;9.80;62.50
56538;DHT22;42435;53.292;6.000;2023-04-25T07:49:34;9.90;62.90
56538;DHT22;42435;53.292;6.000;2023-04-25T07:52:01;10.20;63.40
56538;DHT22;42435;53.292;6.000;2023-04-25T07:54:26;10.30;63.40
56538;DHT22;42435;53.292;6.000;2023-04-25T07:56:52;10.40;63.20
56538;DHT22;42435;53.292;6.000;2023-04-25T07:59:18;10.30;62.90
56538;DHT22;42435;53.292;6.000;2023-04-25T08:01:43;9.90;61.90
56538;DHT22;42435;53.292;6.000;2023-04-25T08:04:09;9.50;62.40
56538;DHT22;42435;53.292;6.000;2023-04-25T08:06:37;9.10;61.70
56538;DHT22;42435;53.292;6.000;2023-04-25T08:09:06;8.80;61.10
56538;DHT22;42435;53.292;6.000;2023-04-25T08:11:33;8.70;62.00
56538;DHT22;42435;53.292;6.000;2023-04-25T08:13:58;8.80;63.20
56538;DHT22;42435;53.292;6.000;2023-04-25T08:16:24;8.80;63.50
56538;DHT22;42435;53.292;6.000;2023-04-25T08:18:50;9.00;63.30
56538;DHT22;42435;53.292;6.000;2023-04-25T08:21:16;9.10;63.50
56538;DHT22;42435;53.292;6.000;2023-04-25T08:23:41;9.20;63.50
56538;DHT22;42435;53.292;6.000;2023-04-25T08:26:07;9.30;63.50
56538;DHT22;42435;53.292;6.000;2023-04-25T08:28:32;9.40;63.50
56538;DHT22;42435;53.292;6.000;2023-04-25T08:30:58;9.50;63.60
56538;DHT22;42435;53.292;6.000;2023-04-25T08:33:24;9.50;63.60
56538;DHT22;42435;53.292;6.000;2023-04-25T08:35:50;9.60;64.10
56538;DHT22;42435;53.292;6.000;2023-04-25T08:38:18;9.90;64.70
56538;DHT22;42435;53.292;6.000;2023-04-25T08:40:49;10.20;64.20
56538;DHT22;42435;53.292;6.000;2023-04-25T08:43:20;10.60;63.10
56538;DHT22;42435;53.292;6.000;2023-04-25T08:45:46;10.80;63.10
56538;DHT22;42435;53.292;6.000;2023-04-25T08:48:16;11.00;62.50
56538;DHT22;42435;53.292;6.000;2023-04-25T08:50:51;11.20;62.00
56538;DHT22;42435;53.292;6.000;2023-04-25T08:53:26;11.30;61.40
56538;DHT22;42435;53.292;6.000;2023-04-25T08:55:54;11.40;61.20
56538;DHT22;42435;53.292;6.000;2023-04-25T08:58:20;11.60;60.30
56538;DHT22;42435;53.292;6.000;2023-04-25T09:00:48;11.80;59.50
56538;DHT22;42435;53.292;6.000;2023-04-25T09:03:15;12.00;58.80
56538;DHT22;42435;53.292;6.000;2023-04-25T09:05:41;12.20;58.70
56538;DHT22;42435;53.292;6.000;2023-04-25T09:08:07;12.40;59.00
56538;DHT22;42435;53.292;6.000;2023-04-25T09:10:33;12.50;57.50
56538;DHT22;42435;53.292;6.000;2023-04-25T09:13:07;12.50;57.00
56538;DHT22;42435;53.292;6.000;2023-04-25T09:15:54;12.60;56.00
56538;DHT22;42435;53.292;6.000;2023-04-25T09:18:34;12.70;55.40
56538;DHT22;42435;53.292;6.000;2023-04-25T09:21:09;12.90;55.60
56538;DHT22;42435;53.292;6.000;2023-04-25T09:23:43;13.00;55.40
56538;DHT22;42435;53.292;6.000;2023-04-25T09:26:09;13.00;54.60
56538;DHT22;42435;53.292;6.000;2023-04-25T09:28:35;13.00;54.80
56538;DHT22;42435;53.292;6.000;2023-04-25T09:31:01;13.00;54.40
56538;DHT22;42435;53.292;6.000;2023-04-25T09:33:32;13.10;54.70
56538;DHT22;42435;53.292;6.000;2023-04-25T09:36:10;13.10;54.40
56538;DHT22;42435;53.292;6.000;2023-04-25T09:38:46;13.10;54.30
56538;DHT22;42435;53.292;6.000;2023-04-25T09:41:12;13.20;54.10
56538;DHT22;42435;53.292;6.000;2023-04-25T09:43:38;13.20;53.30
56538;DHT22;42435;53.292;6.000;2023-04-25T09:46:09;13.20;53.60
56538;DHT22;42435;53.292;6.000;2023-04-25T09:48:37;13.30;52.80
56538;DHT22;42435;53.292;6.000;2023-04-25T09:51:11;13.30;52.30
56538;DHT22;42435;53.292;6.000;2023-04-25T09:53:42;13.40;52.00
56538;DHT22;42435;53.292;6.000;2023-04-25T09:56:10;13.30;51.60
56538;DHT22;42435;53.292;6.000;2023-04-25T09:58:37;13.20;52.70
56538;DHT22;42435;53.292;6.000;2023-04-25T10:01:05;13.20;52.60
56538;DHT22;42435;53.292;6.000;2023-04-25T10:03:41;13.10;52.10
56538;DHT22;42435;53.292;6.000;2023-04-25T10:06:12;13.10;51.70
56538;DHT22;42435;53.292;6.000;2023-04-25T10:08:38;13.00;51.90
56538;DHT22;42435;53.292;6.000;2023-04-25T10:11:05;12.90;52.90
56538;DHT22;42435;53.292;6.000;2023-04-25T10:13:32;12.80;53.60
56538;DHT22;42435;53.292;6.000;2023-04-25T10:15:59;12.70;54.10
56538;DHT22;42435;53.292;6.000;2023-04-25T10:18:27;12.40;54.40
56538;DHT22;42435;53.292;6.000;2023-04-25T10:20:58;12.10;55.50
56538;DHT22;42435;53.292;6.000;2023-04-25T10:23:25;11.90;56.50
56538;DHT22;42435;53.292;6.000;2023-04-25T10:25:52;11.90;57.00
56538;DHT22;42435;53.292;6.000;2023-04-25T10:28:19;11.90;57.90
56538;DHT22;42435;53.292;6.000;2023-04-25T10:31:01;11.90;57.30
56538;DHT22;42435;53.292;6.000;2023-04-25T10:33:38;11.90;57.40
56538;DHT22;42435;53.292;6.000;2023-04-25T10:36:12;11.90;57.40
56538;DHT22;42435;53.292;6.000;2023-04-25T10:38:38;11.90;57.20
56538;DHT22;42435;53.292;6.000;2023-04-25T10:41:06;12.10;56.70
56538;DHT22;42435;53.292;6.000;2023-04-25T10:43:36;12.30;56.10
56538;DHT22;42435;53.292;6.000;2023-04-25T10:46:26;12.50;56.90
56538;DHT22;42435;53.292;6.000;2023-04-25T10:48:56;12.80;56.50
56538;DHT22;42435;53.292;6.000;2023-04-25T10:51:29;12.70;55.20
56538;DHT22;42435;53.292;6.000;2023-04-25T10:54:01;12.30;56.40
56538;DHT22;42435;53.292;6.000;2023-04-25T10:56:37;11.60;57.20
56538;DHT22;42435;53.292;6.000;2023-04-25T10:59:15;11.20;59.10
56538;DHT22;42435;53.292;6.000;2023-04-25T11:01:43;11.00;59.80
56538;DHT22;42435;53.292;6.000;2023-04-25T11:04:28;11.00;60.70
56538;DHT22;42435;53.292;6.000;2023-04-25T11:09:37;11.50;61.50
56538;DHT22;42435;53.292;6.000;2023-04-25T11:12:04;11.70;61.80
56538;DHT22;42435;53.292;6.000;2023-04-25T11:14:30;12.00;61.10
56538;DHT22;42435;53.292;6.000;2023-04-25T11:16:59;12.20;60.10
56538;DHT22;42435;53.292;6.000;2023-04-25T11:19:27;12.40;57.90
56538;DHT22;42435;53.292;6.000;2023-04-25T11:21:57;12.40;56.50
56538;DHT22;42435;53.292;6.000;2023-04-25T11:24:27;12.20;55.30
56538;DHT22;42435;53.292;6.000;2023-04-25T11:26:53;11.90;55.10
56538;DHT22;42435;53.292;6.000;2023-04-25T11:29:28;11.70;54.90
56538;DHT22;42435;53.292;6.000;2023-04-25T11:31:54;11.40;55.20
56538;DHT22;42435;53.292;6.000;2023-04-25T11:34:33;11.30;55.60
56538;DHT22;42435;53.292;6.000;2023-04-25T11:37:00;11.20;55.80
56538;DHT22;42435;53.292;6.000;2023-04-25T11:39:27;11.30;56.40
56538;DHT22;42435;53.292;6.000;2023-04-25T11:41:53;11.50;56.60
56538;DHT22;42435;53.292;6.000;2023-04-25T11:44:22;11.60;56.40
56538;DHT22;42435;53.292;6.000;2023-04-25T11:46:48;11.80;57.30
56538;DHT22;42435;53.292;6.000;2023-04-25T11:49:16;12.00;57.80
56538;DHT22;42435;53.292;6.000;2023-04-25T11:51:46;12.50;57.80
56538;DHT22;42435;53.292;6.000;2023-04-25T11:54:12;12.90;57.10
56538;DHT22;42435;53.292;6.000;2023-04-25T11:56:43;13.10;55.50
56538;DHT22;42435;53.292;6.000;2023-04-25T11:59:09;13.20;54.90
56538;DHT22;42435;53.292;6.000;2023-04-25T12:01:37;13.20;54.60
56538;DHT22;42435;53.292;6.000;2023-04-25T12:04:22;13.30;54.20
56538;DHT22;42435;53.292;6.000;2023-04-25T12:06:49;13.30;53.70
56538;DHT22;42435;53.292;6.000;2023-04-25T12:09:21;13.30;54.30
56538;DHT22;42435;53.292;6.000;2023-04-25T12:11:55;13.30;52.90
56538;DHT22;42435;53.292;6.000;2023-04-25T12:14:26;13.20;53.40
56538;DHT22;42435;53.292;6.000;2023-04-25T12:16:57;13.00;54.60
56538;DHT22;42435;53.292;6.000;2023-04-25T12:19:23;12.70;55.00
56538;DHT22;42435;53.292;6.000;2023-04-25T12:21:50;12.40;54.20
56538;DHT22;42435;53.292;6.000;2023-04-25T12:24:22;11.90;55.40
56538;DHT22;42435;53.292;6.000;2023-04-25T12:27:04;11.70;57.40
56538;DHT22;42435;53.292;6.000;2023-04-25T12:29:32;11.50;57.10
56538;DHT22;42435;53.292;6.000;2023-04-25T12:31:58;11.40;57.20
56538;DHT22;42435;53.292;6.000;2023-04-25T12:34:27;11.50;57.20
56538;DHT22;42435;53.292;6.000;2023-04-25T12:36:53;11.60;57.10
56538;DHT22;42435;53.292;6.000;2023-04-25T12:39:23;11.70;56.80
56538;DHT22;42435;53.292;6.000;2023-04-25T12:41:53;11.80;55.80
56538;DHT22;42435;53.292;6.000;2023-04-25T12:44:21;11.80;56.30
56538;DHT22;42435;53.292;6.000;2023-04-25T12:46:47;11.70;56.80
56538;DHT22;42435;53.292;6.000;2023-04-25T12:49:16;11.70;56.80
56538;DHT22;42435;53.292;6.000;2023-04-25T12:51:42;11.60;57.20
56538;DHT22;42435;53.292;6.000;2023-04-25T12:54:07;11.40;58.00
56538;DHT22;42435;53.292;6.000;2023-04-25T12:56:35;11.20;58.30
56538;DHT22;42435;53.292;6.000;2023-04-25T12:59:04;11.10;58.80
56538;DHT22;42435;53.292;6.000;2023-04-25T13:01:29;10.90;60.10
56538;DHT22;42435;53.292;6.000;2023-04-25T13:03:55;10.80;60.80
56538;DHT22;42435;53.292;6.000;2023-04-25T13:06:21;10.50;60.60
56538;DHT22;42435;53.292;6.000;2023-04-25T13:08:50;10.30;60.40
56538;DHT22;42435;53.292;6.000;2023-04-25T13:11:17;10.00;61.00
56538;DHT22;42435;53.292;6.000;2023-04-25T13:13:43;9.80;61.80
56538;DHT22;42435;53.292;6.000;2023-04-25T13:16:09;9.90;62.80
56538;DHT22;42435;53.292;6.000;2023-04-25T13:18:35;10.10;63.50
56538;DHT22;42435;53.292;6.000;2023-04-25T13:21:01;10.30;62.80
56538;DHT22;42435;53.292;6.000;2023-04-25T13:23:28;10.60;62.60
56538;DHT22;42435;53.292;6.000;2023-04-25T13:25:55;10.90;61.90
56538;DHT22;42435;53.292;6.000;2023-04-25T13:28:21;11.10;61.10
56538;DHT22;42435;53.292;6.000;2023-04-25T13:30:47;11.40;59.80
56538;DHT22;42435;53.292;6.000;2023-04-25T13:33:14;11.60;58.60
56538;DHT22;42435;53.292;6.000;2023-04-25T13:35:43;11.80;58.70
56538;DHT22;42435;53.292;6.000;2023-04-25T13:38:15;12.00;58.40
56538;DHT22;42435;53.292;6.000;2023-04-25T13:40:40;12.10;58.00
56538;DHT22;42435;53.292;6.000;2023-04-25T13:43:06;12.20;57.60
56538;DHT22;42435;53.292;6.000;2023-04-25T13:45:32;12.20;57.30
56538;DHT22;42435;53.292;6.000;2023-04-25T13:47:57;12.00;57.00
56538;DHT22;42435;53.292;6.000;2023-04-25T13:50:23;11.70;56.20
56538;DHT22;42435;53.292;6.000;2023-04-25T13:52:51;11.30;55.90
56538;DHT22;42435;53.292;6.000;2023-04-25T13:55:19;11.00;56.30
56538;DHT22;42435;53.292;6.000;2023-04-25T13:57:45;10.90;56.10
56538;DHT22;42435;53.292;6.000;2023-04-25T14:00:11;10.70;55.30
56538;DHT22;42435;53.292;6.000;2023-04-25T14:02:37;10.60;55.40
56538;DHT22;42435;53.292;6.000;2023-04-25T14:05:06;10.60;55.90
56538;DHT22;42435;53.292;6.000;2023-04-25T14:07:36;10.80;56.30
56538;DHT22;42435;53.292;6.000;2023-04-25T14:10:03;10.90;56.70
56538;DHT22;42435;53.292;6.000;2023-04-25T14:12:30;11.20;57.10
56538;DHT22;42435;53.292;6.000;2023-04-25T14:14:58;11.50;56.10
56538;DHT22;42435;53.292;6.000;2023-04-25T14:17:24;11.60;56.30
56538;DHT22;42435;53.292;6.000;2023-04-25T14:19:50;11.70;56.40
56538;DHT22;42435;53.292;6.000;2023-04-25T14:22:16;11.80;56.10
56538;DHT22;42435;53.292;6.000;2023-04-25T14:24:41;11.60;55.20
56538;DHT22;42435;53.292;6.000;2023-04-25T14:27:07;11.50;55.40
56538;DHT22;42435;53.292;6.000;2023-04-25T14:29:33;11.40;56.30
56538;DHT22;42435;53.292;6.000;2023-04-25T14:31:58;11.50;56.60
56538;DHT22;42435;53.292;6.000;2023-04-25T14:34:25;11.70;55.60
56538;DHT22;42435;53.292;6.000;2023-04-25T14:36:51;11.80;55.60
56538;DHT22;42435;53.292;6.000;2023-04-25T14:39:17;11.80;55.20
56538;DHT22;42435;53.292;6.000;2023-04-25T14:41:46;11.80;55.20
56538;DHT22;42435;53.292;6.000;2023-04-25T14:44:12;11.90;55.80
56538;DHT22;42435;53.292;6.000;2023-04-25T14:46:37;12.00;56.20
56538;DHT22;42435;53.292;6.000;2023-04-25T14:49:04;12.10;55.30
56538;DHT22;42435;53.292;6.000;2023-04-25T14:51:30;12.20;55.00
56538;DHT22;42435;53.292;6.000;2023-04-25T14:53:56;12.10;54.90
56538;DHT22;42435;53.292;6.000;2023-04-25T14:56:21;12.20;55.30
56538;DHT22;42435;53.292;6.000;2023-04-25T14:58:47;12.10;55.70
56538;DHT22;42435;53.292;6.000;2023-04-25T15:01:13;12.20;55.80
56538;DHT22;42435;53.292;6.000;2023-04-25T15:03:45;12.30;55.10
56538;DHT22;42435;53.292;6.000;2023-04-25T15:06:11;12.30;54.00
56538;DHT22;42435;53.292;6.000;2023-04-25T15:08:36;12.40;53.80
56538;DHT22;42435;53.292;6.000;2023-04-25T15:11:02;12.40;53.50
56538;DHT22;42435;53.292;6.000;2023-04-25T15:13:28;12.40;53.00
56538;DHT22;42435;53.292;6.000;2023-04-25T15:15:54;12.40;52.90
56538;DHT22;42435;53.292;6.000;2023-04-25T15:18:21;12.40;53.10
56538;DHT22;42435;53.292;6.000;2023-04-25T15:20:48;12.50;52.50
56538;DHT22;42435;53.292;6.000;2023-04-25T15:23:14;12.50;52.60
56538;DHT22;42435;53.292;6.000;2023-04-25T15:25:39;12.40;52.40
56538;DHT22;42435;53.292;6.000;2023-04-25T15:28:05;12.30;52.40
56538;DHT22;42435;53.292;6.000;2023-04-25T15:30:31;12.10;52.80
56538;DHT22;42435;53.292;6.000;2023-04-25T15:32:56;11.90;53.40
56538;DHT22;42435;53.292;6.000;2023-04-25T15:35:22;12.00;54.50
56538;DHT22;42435;53.292;6.000;2023-04-25T15:37:47;12.20;54.60
56538;DHT22;42435;53.292;6.000;2023-04-25T15:40:15;12.40;54.50
56538;DHT22;42435;53.292;6.000;2023-04-25T15:42:43;12.40;54.20